K-storm — V2DV8 — position and weather

sailwx.info

Track history (hours):
 
Tides and Currents Weather Stations Pressure Air Temp Water Temp Dewpoint Dewpoint Depression Visibility Wind Speed Wind Dir Waves Ship Positions

K-storm

Last reported at 2014-Oct-17 16:29 UTC. Time now 2014-Oct-22 22:38 UTC.
Position N 24°05' W 081°24'.

Length 139 m; draft 6.8 m.

Type: Ship. MMSI: 305350000.

Date/timePositionNaut miles runAvg speedWind from/ knotsBaromVisibWave heightAir tempDewpointWater temp
2014-Oct-17 16:29N 24°05' W 081°24'1515.4
2014-Oct-17 15:32N 24°14' W 081°12'7815.1
2014-Oct-17 10:22N 25°06' W 080°08'1714.6
2014-Oct-17 09:11N 25°22' W 080°01'914.4
2014-Oct-17 08:33N 25°31' W 080°01'1413.9
2014-Oct-17 07:33N 25°45' W 080°02'1413.7
2014-Oct-17 06:33N 25°59' W 080°02'7 6.8
2014-Oct-17 05:33N 26°04' W 080°07'0 0.0
2014-Oct-17 04:33N 26°04' W 080°07'0 0.0
2014-Oct-17 03:27N 26°04' W 080°07'0 0.0
2014-Oct-17 02:32N 26°04' W 080°07'0 0.0
2014-Oct-17 01:29N 26°04' W 080°07'0 0.0
2014-Oct-17 00:31N 26°04' W 080°07'0 0.0
2014-Oct-16 23:31N 26°04' W 080°07'0 0.0
2014-Oct-16 22:24N 26°04' W 080°07'0 0.0
2014-Oct-16 21:27N 26°04' W 080°07'0 0.0
2014-Oct-16 20:23N 26°04' W 080°07'0 0.0
2014-Oct-16 19:32N 26°04' W 080°07'0 0.0
2014-Oct-16 18:29N 26°04' W 080°07'0 0.0
2014-Oct-16 17:31N 26°04' W 080°07'0 0.0
2014-Oct-16 16:31N 26°04' W 080°07'0 0.0
2014-Oct-16 15:21N 26°04' W 080°07'0 0.0
2014-Oct-16 14:33N 26°04' W 080°07'0 0.0
2014-Oct-16 13:23N 26°04' W 080°07'0 0.0
2014-Oct-16 12:17N 26°04' W 080°07'0 0.0
2014-Oct-16 11:29N 26°04' W 080°07'0 0.0
2014-Oct-16 10:31N 26°04' W 080°07'1 0.5
2014-Oct-16 09:33N 26°04' W 080°07'7 7.4
2014-Oct-16 08:33N 26°03' W 079°59'1312.7
2014-Oct-16 07:33N 25°50' W 079°58'1717.0
2014-Oct-16 06:33N 25°33' W 079°58'  
2014-Oct-10 08:32N 25°28' W 080°01'1414.3
2014-Oct-10 07:33N 25°42' W 080°02'1414.3
2014-Oct-10 06:33N 25°57' W 080°02'10 9.5
2014-Oct-10 05:33N 26°05' W 080°07'1 1.1
2014-Oct-10 04:31N 26°04' W 080°07'0 0.0
2014-Oct-10 03:28N 26°04' W 080°07'0 0.0
2014-Oct-10 02:33N 26°04' W 080°07'0 0.0
2014-Oct-10 01:30N 26°04' W 080°07'0 0.0
2014-Oct-10 00:33N 26°04' W 080°07'0 0.0
2014-Oct-09 23:32N 26°04' W 080°07'0 0.0
2014-Oct-09 22:23N 26°04' W 080°07'0 0.0
2014-Oct-09 21:33N 26°04' W 080°07'0 0.0
2014-Oct-09 20:33N 26°04' W 080°07'0 0.0
2014-Oct-09 19:33N 26°04' W 080°07'0 0.0
2014-Oct-09 18:33N 26°04' W 080°07'0 0.0
2014-Oct-09 17:33N 26°04' W 080°07'0 0.0
2014-Oct-09 16:33N 26°04' W 080°07'0 0.0
2014-Oct-09 15:33N 26°04' W 080°07'0 0.0
2014-Oct-09 14:33N 26°04' W 080°07'0 0.0
2014-Oct-09 13:33N 26°04' W 080°07'0 0.0
2014-Oct-09 12:33N 26°04' W 080°07'0 0.0
2014-Oct-09 11:33N 26°04' W 080°07'0 0.0
2014-Oct-09 10:33N 26°04' W 080°07'0 0.1
2014-Oct-09 09:33N 26°04' W 080°07'5 5.0
2014-Oct-09 08:33N 26°05' W 080°02'1010.2
2014-Oct-09 07:33N 26°02' W 079°51'1313.4
2014-Oct-09 06:33N 25°49' W 079°54'  
Track history (hours):
 
Tides and Currents Weather Stations Pressure Air Temp Water Temp Dewpoint Dewpoint Depression Visibility Wind Speed Wind Dir Waves Ship Positions

K-storm

Last reported at 2014-Oct-17 16:29 UTC. Time now 2014-Oct-22 22:38 UTC.
Position N 24°05' W 081°24'.

Length 139 m; draft 6.8 m.

Type: Ship. MMSI: 305350000.

Date/timePositionNaut miles runAvg speedWind from/ knotsBaromVisibWave heightAir tempDewpointWater temp
2014-Oct-17 16:29N 24°05' W 081°24'1515.4
2014-Oct-17 15:32N 24°14' W 081°12'7815.1
2014-Oct-17 10:22N 25°06' W 080°08'1714.6
2014-Oct-17 09:11N 25°22' W 080°01'914.4
2014-Oct-17 08:33N 25°31' W 080°01'1413.9
2014-Oct-17 07:33N 25°45' W 080°02'1413.7
2014-Oct-17 06:33N 25°59' W 080°02'7 6.8
2014-Oct-17 05:33N 26°04' W 080°07'0 0.0
2014-Oct-17 04:33N 26°04' W 080°07'0 0.0
2014-Oct-17 03:27N 26°04' W 080°07'0 0.0
2014-Oct-17 02:32N 26°04' W 080°07'0 0.0
2014-Oct-17 01:29N 26°04' W 080°07'0 0.0
2014-Oct-17 00:31N 26°04' W 080°07'0 0.0
2014-Oct-16 23:31N 26°04' W 080°07'0 0.0
2014-Oct-16 22:24N 26°04' W 080°07'0 0.0
2014-Oct-16 21:27N 26°04' W 080°07'0 0.0
2014-Oct-16 20:23N 26°04' W 080°07'0 0.0
2014-Oct-16 19:32N 26°04' W 080°07'0 0.0
2014-Oct-16 18:29N 26°04' W 080°07'0 0.0
2014-Oct-16 17:31N 26°04' W 080°07'0 0.0
2014-Oct-16 16:31N 26°04' W 080°07'0 0.0
2014-Oct-16 15:21N 26°04' W 080°07'0 0.0
2014-Oct-16 14:33N 26°04' W 080°07'0 0.0
2014-Oct-16 13:23N 26°04' W 080°07'0 0.0
2014-Oct-16 12:17N 26°04' W 080°07'0 0.0
2014-Oct-16 11:29N 26°04' W 080°07'0 0.0
2014-Oct-16 10:31N 26°04' W 080°07'1 0.5
2014-Oct-16 09:33N 26°04' W 080°07'7 7.4
2014-Oct-16 08:33N 26°03' W 079°59'1312.7
2014-Oct-16 07:33N 25°50' W 079°58'1717.0
2014-Oct-16 06:33N 25°33' W 079°58'  
2014-Oct-10 08:32N 25°28' W 080°01'1414.3
2014-Oct-10 07:33N 25°42' W 080°02'1414.3
2014-Oct-10 06:33N 25°57' W 080°02'10 9.5
2014-Oct-10 05:33N 26°05' W 080°07'1 1.1
2014-Oct-10 04:31N 26°04' W 080°07'0 0.0
2014-Oct-10 03:28N 26°04' W 080°07'0 0.0
2014-Oct-10 02:33N 26°04' W 080°07'0 0.0
2014-Oct-10 01:30N 26°04' W 080°07'0 0.0
2014-Oct-10 00:33N 26°04' W 080°07'0 0.0
2014-Oct-09 23:32N 26°04' W 080°07'0 0.0
2014-Oct-09 22:23N 26°04' W 080°07'0 0.0
2014-Oct-09 21:33N 26°04' W 080°07'0 0.0
2014-Oct-09 20:33N 26°04' W 080°07'0 0.0
2014-Oct-09 19:33N 26°04' W 080°07'0 0.0
2014-Oct-09 18:33N 26°04' W 080°07'0 0.0
2014-Oct-09 17:33N 26°04' W 080°07'0 0.0
2014-Oct-09 16:33N 26°04' W 080°07'0 0.0
2014-Oct-09 15:33N 26°04' W 080°07'0 0.0
2014-Oct-09 14:33N 26°04' W 080°07'0 0.0
2014-Oct-09 13:33N 26°04' W 080°07'0 0.0
2014-Oct-09 12:33N 26°04' W 080°07'0 0.0
2014-Oct-09 11:33N 26°04' W 080°07'0 0.0
2014-Oct-09 10:33N 26°04' W 080°07'0 0.1
2014-Oct-09 09:33N 26°04' W 080°07'5 5.0
2014-Oct-09 08:33N 26°05' W 080°02'1010.2
2014-Oct-09 07:33N 26°02' W 079°51'1313.4
2014-Oct-09 06:33N 25°49' W 079°54'  

Dump ship's entire track history